Terminal Aerodrome Forecast
Issued by NWS Chicago, IL

Home | Current Version | Previous Version | Graphics & Text | Print | Product List | Glossary On
Versions: 1 2 3 4 5 6 7 8 9 10 11 12 13 14 15 16 17 18 19 20 21 22 23 24 25 26 27 28 29 30 31 32 33 34 35
000
FTUS43 KLOT 201600 AAB
TAFRFD
TAF AMD
KRFD 201601Z 2016/2112 26008KT P6SM FEW040 BKN250
     FM210300 VRB03KT P6SM SCT035 BKN050
     FM210900 16005KT P6SM VCTS BKN050CB=

USA.gov is the U.S. government's official web portal to all federal, state and local government web resources and services.